sensor_id;sensor_type;location;lat;lon;timestamp;temperature;humidity
39779;DHT22;25454;49.878;8.618;2022-07-22T00:01:55;20.70;99.90
39779;DHT22;25454;49.878;8.618;2022-07-22T00:06:55;20.70;99.90
39779;DHT22;25454;49.878;8.618;2022-07-22T00:11:56;20.60;99.90
39779;DHT22;25454;49.878;8.618;2022-07-22T00:16:57;20.60;99.90
39779;DHT22;25454;49.878;8.618;2022-07-22T00:21:57;20.50;99.90
39779;DHT22;25454;49.878;8.618;2022-07-22T00:26:58;20.40;99.90
39779;DHT22;25454;49.878;8.618;2022-07-22T00:31:58;20.30;99.90
39779;DHT22;25454;49.878;8.618;2022-07-22T00:36:59;20.30;99.90
39779;DHT22;25454;49.878;8.618;2022-07-22T00:42:00;20.30;99.90
39779;DHT22;25454;49.878;8.618;2022-07-22T00:47:07;20.20;99.90
39779;DHT22;25454;49.878;8.618;2022-07-22T00:52:07;20.00;99.90
39779;DHT22;25454;49.878;8.618;2022-07-22T00:57:08;20.00;99.90
39779;DHT22;25454;49.878;8.618;2022-07-22T01:02:09;19.90;99.90
39779;DHT22;25454;49.878;8.618;2022-07-22T01:07:09;19.80;99.90
39779;DHT22;25454;49.878;8.618;2022-07-22T01:12:10;19.80;99.90
39779;DHT22;25454;49.878;8.618;2022-07-22T01:17:11;19.70;99.90
39779;DHT22;25454;49.878;8.618;2022-07-22T01:22:11;19.60;99.90
39779;DHT22;25454;49.878;8.618;2022-07-22T01:27:12;19.50;99.90
39779;DHT22;25454;49.878;8.618;2022-07-22T01:32:13;19.50;99.90
39779;DHT22;25454;49.878;8.618;2022-07-22T01:37:13;19.40;99.90
39779;DHT22;25454;49.878;8.618;2022-07-22T01:42:17;19.40;99.90
39779;DHT22;25454;49.878;8.618;2022-07-22T01:47:17;19.40;99.90
39779;DHT22;25454;49.878;8.618;2022-07-22T01:52:18;19.40;99.90
39779;DHT22;25454;49.878;8.618;2022-07-22T01:57:19;19.40;99.90
39779;DHT22;25454;49.878;8.618;2022-07-22T02:02:19;19.30;99.90
39779;DHT22;25454;49.878;8.618;2022-07-22T02:07:20;19.20;99.90
39779;DHT22;25454;49.878;8.618;2022-07-22T02:12:20;19.20;99.90
39779;DHT22;25454;49.878;8.618;2022-07-22T02:17:21;19.20;99.90
39779;DHT22;25454;49.878;8.618;2022-07-22T02:22:22;19.20;99.90
39779;DHT22;25454;49.878;8.618;2022-07-22T02:27:22;19.10;99.90
39779;DHT22;25454;49.878;8.618;2022-07-22T02:32:23;19.00;99.90
39779;DHT22;25454;49.878;8.618;2022-07-22T02:37:24;19.00;99.90
39779;DHT22;25454;49.878;8.618;2022-07-22T02:42:24;18.90;99.90
39779;DHT22;25454;49.878;8.618;2022-07-22T02:47:25;18.90;99.90
39779;DHT22;25454;49.878;8.618;2022-07-22T02:52:26;19.00;99.90
39779;DHT22;25454;49.878;8.618;2022-07-22T02:57:26;19.00;99.90
39779;DHT22;25454;49.878;8.618;2022-07-22T03:02:30;19.10;99.90
39779;DHT22;25454;49.878;8.618;2022-07-22T03:07:31;19.10;99.90
39779;DHT22;25454;49.878;8.618;2022-07-22T03:12:31;19.10;99.90
39779;DHT22;25454;49.878;8.618;2022-07-22T03:17:38;19.10;99.90
39779;DHT22;25454;49.878;8.618;2022-07-22T03:22:39;19.00;99.90
39779;DHT22;25454;49.878;8.618;2022-07-22T03:27:39;19.00;99.90
39779;DHT22;25454;49.878;8.618;2022-07-22T03:32:40;19.00;99.90
39779;DHT22;25454;49.878;8.618;2022-07-22T03:37:46;19.00;99.90
39779;DHT22;25454;49.878;8.618;2022-07-22T03:42:47;18.80;99.90
39779;DHT22;25454;49.878;8.618;2022-07-22T03:47:48;18.70;99.90
39779;DHT22;25454;49.878;8.618;2022-07-22T03:52:48;18.60;99.90
39779;DHT22;25454;49.878;8.618;2022-07-22T03:57:49;18.60;99.90
39779;DHT22;25454;49.878;8.618;2022-07-22T04:02:49;18.70;99.90
39779;DHT22;25454;49.878;8.618;2022-07-22T04:07:50;18.80;99.90
39779;DHT22;25454;49.878;8.618;2022-07-22T04:12:51;19.10;99.90
39779;DHT22;25454;49.878;8.618;2022-07-22T04:17:51;19.20;99.90
39779;DHT22;25454;49.878;8.618;2022-07-22T04:22:52;19.50;99.90
39779;DHT22;25454;49.878;8.618;2022-07-22T04:27:53;19.70;99.90
39779;DHT22;25454;49.878;8.618;2022-07-22T04:32:55;19.90;99.90
39779;DHT22;25454;49.878;8.618;2022-07-22T04:37:55;19.70;99.90
39779;DHT22;25454;49.878;8.618;2022-07-22T04:42:56;19.70;99.90
39779;DHT22;25454;49.878;8.618;2022-07-22T04:47:57;19.80;99.90
39779;DHT22;25454;49.878;8.618;2022-07-22T04:52:57;20.10;99.90
39779;DHT22;25454;49.878;8.618;2022-07-22T04:57:58;20.30;99.90
39779;DHT22;25454;49.878;8.618;2022-07-22T05:02:59;20.50;99.90
39779;DHT22;25454;49.878;8.618;2022-07-22T05:07:59;20.60;99.90
39779;DHT22;25454;49.878;8.618;2022-07-22T05:13:00;20.70;99.90
39779;DHT22;25454;49.878;8.618;2022-07-22T05:18:01;20.80;99.90
39779;DHT22;25454;49.878;8.618;2022-07-22T05:23:01;20.80;99.90
39779;DHT22;25454;49.878;8.618;2022-07-22T05:28:02;20.80;99.90
39779;DHT22;25454;49.878;8.618;2022-07-22T05:33:03;20.90;99.90
39779;DHT22;25454;49.878;8.618;2022-07-22T05:38:03;20.90;99.90
39779;DHT22;25454;49.878;8.618;2022-07-22T05:43:05;20.90;99.90
39779;DHT22;25454;49.878;8.618;2022-07-22T05:48:06;21.10;99.90
39779;DHT22;25454;49.878;8.618;2022-07-22T05:53:07;21.20;99.90
39779;DHT22;25454;49.878;8.618;2022-07-22T05:58:07;21.30;99.90
39779;DHT22;25454;49.878;8.618;2022-07-22T06:03:08;21.30;99.90
39779;DHT22;25454;49.878;8.618;2022-07-22T06:08:08;21.40;99.90
39779;DHT22;25454;49.878;8.618;2022-07-22T06:13:15;21.60;99.90
39779;DHT22;25454;49.878;8.618;2022-07-22T06:18:18;21.70;99.90
39779;DHT22;25454;49.878;8.618;2022-07-22T06:23:19;22.00;99.90
39779;DHT22;25454;49.878;8.618;2022-07-22T06:28:19;24.00;99.90
39779;DHT22;25454;49.878;8.618;2022-07-22T06:33:20;26.50;99.90
39779;DHT22;25454;49.878;8.618;2022-07-22T06:38:21;29.00;95.40
39779;DHT22;25454;49.878;8.618;2022-07-22T06:43:24;31.00;82.80
39779;DHT22;25454;49.878;8.618;2022-07-22T06:48:25;32.80;67.30
39779;DHT22;25454;49.878;8.618;2022-07-22T06:53:25;34.60;58.40
39779;DHT22;25454;49.878;8.618;2022-07-22T06:58:29;33.60;55.60
39779;DHT22;25454;49.878;8.618;2022-07-22T07:03:30;32.40;57.80
39779;DHT22;25454;49.878;8.618;2022-07-22T07:08:30;31.70;58.00
39779;DHT22;25454;49.878;8.618;2022-07-22T07:13:31;32.40;58.40
39779;DHT22;25454;49.878;8.618;2022-07-22T07:18:32;34.40;53.00
39779;DHT22;25454;49.878;8.618;2022-07-22T07:23:33;33.00;54.50
39779;DHT22;25454;49.878;8.618;2022-07-22T07:28:33;32.70;54.50
39779;DHT22;25454;49.878;8.618;2022-07-22T07:33:34;31.80;55.60
39779;DHT22;25454;49.878;8.618;2022-07-22T07:38:38;32.00;57.00
39779;DHT22;25454;49.878;8.618;2022-07-22T07:43:38;32.50;55.10
39779;DHT22;25454;49.878;8.618;2022-07-22T07:48:39;32.70;53.50
39779;DHT22;25454;49.878;8.618;2022-07-22T07:53:40;32.30;54.80
39779;DHT22;25454;49.878;8.618;2022-07-22T07:58:41;30.80;56.80
39779;DHT22;25454;49.878;8.618;2022-07-22T08:03:41;30.10;59.40
39779;DHT22;25454;49.878;8.618;2022-07-22T08:08:42;29.70;62.10
39779;DHT22;25454;49.878;8.618;2022-07-22T08:13:45;32.70;54.70
39779;DHT22;25454;49.878;8.618;2022-07-22T08:18:46;34.20;51.50
39779;DHT22;25454;49.878;8.618;2022-07-22T08:23:47;34.50;50.80
39779;DHT22;25454;49.878;8.618;2022-07-22T08:28:48;34.40;50.80
39779;DHT22;25454;49.878;8.618;2022-07-22T08:33:48;36.20;47.50
39779;DHT22;25454;49.878;8.618;2022-07-22T08:38:49;37.20;45.00
39779;DHT22;25454;49.878;8.618;2022-07-22T08:43:51;37.40;45.20
39779;DHT22;25454;49.878;8.618;2022-07-22T08:48:52;37.30;43.70
39779;DHT22;25454;49.878;8.618;2022-07-22T08:53:55;37.40;43.50
39779;DHT22;25454;49.878;8.618;2022-07-22T08:58:56;38.20;41.30
39779;DHT22;25454;49.878;8.618;2022-07-22T09:03:57;37.90;41.20
39779;DHT22;25454;49.878;8.618;2022-07-22T09:09:03;38.80;39.80
39779;DHT22;25454;49.878;8.618;2022-07-22T09:14:04;38.30;39.80
39779;DHT22;25454;49.878;8.618;2022-07-22T09:19:05;38.60;40.40
39779;DHT22;25454;49.878;8.618;2022-07-22T09:24:06;37.60;40.50
39779;DHT22;25454;49.878;8.618;2022-07-22T09:29:10;38.70;40.70
39779;DHT22;25454;49.878;8.618;2022-07-22T09:34:26;40.60;37.80
39779;DHT22;25454;49.878;8.618;2022-07-22T09:39:29;39.80;37.30
39779;DHT22;25454;49.878;8.618;2022-07-22T09:44:31;40.70;37.10
39779;DHT22;25454;49.878;8.618;2022-07-22T09:49:38;41.30;34.30
39779;DHT22;25454;49.878;8.618;2022-07-22T09:54:41;40.20;34.30
39779;DHT22;25454;49.878;8.618;2022-07-22T09:59:42;39.80;35.30
39779;DHT22;25454;49.878;8.618;2022-07-22T10:04:45;41.90;33.30
39779;DHT22;25454;49.878;8.618;2022-07-22T10:09:47;41.30;33.40
39779;DHT22;25454;49.878;8.618;2022-07-22T10:14:48;43.60;31.80
39779;DHT22;25454;49.878;8.618;2022-07-22T10:19:49;43.70;30.40
39779;DHT22;25454;49.878;8.618;2022-07-22T10:25:00;45.70;29.30
39779;DHT22;25454;49.878;8.618;2022-07-22T10:30:04;46.10;27.80
39779;DHT22;25454;49.878;8.618;2022-07-22T10:40:14;44.20;28.70
39779;DHT22;25454;49.878;8.618;2022-07-22T10:45:14;43.30;29.80
39779;DHT22;25454;49.878;8.618;2022-07-22T10:56:05;42.50;32.00
39779;DHT22;25454;49.878;8.618;2022-07-22T11:01:08;43.20;30.00
39779;DHT22;25454;49.878;8.618;2022-07-22T11:06:25;41.50;31.60
39779;DHT22;25454;49.878;8.618;2022-07-22T11:11:49;41.60;30.90
39779;DHT22;25454;49.878;8.618;2022-07-22T11:16:51;40.90;31.90
39779;DHT22;25454;49.878;8.618;2022-07-22T11:21:54;43.20;30.00
39779;DHT22;25454;49.878;8.618;2022-07-22T11:26:59;44.20;28.50
39779;DHT22;25454;49.878;8.618;2022-07-22T11:32:02;42.50;29.20
39779;DHT22;25454;49.878;8.618;2022-07-22T11:37:03;43.20;29.70
39779;DHT22;25454;49.878;8.618;2022-07-22T11:42:04;43.80;29.10
39779;DHT22;25454;49.878;8.618;2022-07-22T11:47:06;43.80;29.20
39779;DHT22;25454;49.878;8.618;2022-07-22T11:52:09;40.80;31.50
39779;DHT22;25454;49.878;8.618;2022-07-22T11:57:13;37.70;36.10
39779;DHT22;25454;49.878;8.618;2022-07-22T12:02:14;35.50;40.20
39779;DHT22;25454;49.878;8.618;2022-07-22T12:07:15;34.10;41.50
39779;DHT22;25454;49.878;8.618;2022-07-22T12:12:17;33.40;43.10
39779;DHT22;25454;49.878;8.618;2022-07-22T12:17:17;33.00;43.90
39779;DHT22;25454;49.878;8.618;2022-07-22T12:22:22;32.90;44.20
39779;DHT22;25454;49.878;8.618;2022-07-22T12:27:26;32.90;43.80
39779;DHT22;25454;49.878;8.618;2022-07-22T12:32:30;32.20;44.80
39779;DHT22;25454;49.878;8.618;2022-07-22T12:37:41;31.90;45.40
39779;DHT22;25454;49.878;8.618;2022-07-22T12:43:00;31.60;45.90
39779;DHT22;25454;49.878;8.618;2022-07-22T12:53:06;30.70;47.80
39779;DHT22;25454;49.878;8.618;2022-07-22T12:58:08;30.60;47.60
39779;DHT22;25454;49.878;8.618;2022-07-22T13:03:09;30.50;47.90
39779;DHT22;25454;49.878;8.618;2022-07-22T13:08:13;30.60;48.00
39779;DHT22;25454;49.878;8.618;2022-07-22T13:13:13;30.90;47.80
39779;DHT22;25454;49.878;8.618;2022-07-22T13:18:15;31.00;47.20
39779;DHT22;25454;49.878;8.618;2022-07-22T13:23:15;31.50;46.60
39779;DHT22;25454;49.878;8.618;2022-07-22T13:28:16;31.70;46.00
39779;DHT22;25454;49.878;8.618;2022-07-22T13:33:17;31.60;46.20
39779;DHT22;25454;49.878;8.618;2022-07-22T13:38:17;31.70;46.10
39779;DHT22;25454;49.878;8.618;2022-07-22T13:43:19;31.70;45.90
39779;DHT22;25454;49.878;8.618;2022-07-22T13:48:20;31.60;45.90
39779;DHT22;25454;49.878;8.618;2022-07-22T13:53:21;31.50;46.30
39779;DHT22;25454;49.878;8.618;2022-07-22T13:58:21;31.40;46.90
39779;DHT22;25454;49.878;8.618;2022-07-22T14:03:22;31.30;46.70
39779;DHT22;25454;49.878;8.618;2022-07-22T14:08:23;31.30;46.90
39779;DHT22;25454;49.878;8.618;2022-07-22T14:13:24;31.30;46.80
39779;DHT22;25454;49.878;8.618;2022-07-22T14:18:24;31.30;46.60
39779;DHT22;25454;49.878;8.618;2022-07-22T14:23:25;31.40;46.70
39779;DHT22;25454;49.878;8.618;2022-07-22T14:28:26;31.10;46.80
39779;DHT22;25454;49.878;8.618;2022-07-22T14:33:27;30.70;47.70
39779;DHT22;25454;49.878;8.618;2022-07-22T14:38:28;30.50;48.00
39779;DHT22;25454;49.878;8.618;2022-07-22T14:43:29;30.80;48.50
39779;DHT22;25454;49.878;8.618;2022-07-22T14:48:30;31.00;47.70
39779;DHT22;25454;49.878;8.618;2022-07-22T14:53:31;31.00;47.50
39779;DHT22;25454;49.878;8.618;2022-07-22T14:58:32;31.10;47.40
39779;DHT22;25454;49.878;8.618;2022-07-22T15:03:33;31.20;47.40
39779;DHT22;25454;49.878;8.618;2022-07-22T15:08:33;31.20;47.30
39779;DHT22;25454;49.878;8.618;2022-07-22T15:13:34;31.20;47.30
39779;DHT22;25454;49.878;8.618;2022-07-22T15:18:35;31.30;47.30
39779;DHT22;25454;49.878;8.618;2022-07-22T15:23:35;31.50;46.70
39779;DHT22;25454;49.878;8.618;2022-07-22T15:28:36;31.40;47.00
39779;DHT22;25454;49.878;8.618;2022-07-22T15:33:39;31.30;47.30
39779;DHT22;25454;49.878;8.618;2022-07-22T15:38:40;31.20;48.00
39779;DHT22;25454;49.878;8.618;2022-07-22T15:43:41;31.10;48.30
39779;DHT22;25454;49.878;8.618;2022-07-22T15:48:41;31.00;48.90
39779;DHT22;25454;49.878;8.618;2022-07-22T15:53:42;31.00;48.90
39779;DHT22;25454;49.878;8.618;2022-07-22T15:58:43;30.90;49.00
39779;DHT22;25454;49.878;8.618;2022-07-22T16:04:05;30.70;49.30
39779;DHT22;25454;49.878;8.618;2022-07-22T16:09:12;30.70;49.50
39779;DHT22;25454;49.878;8.618;2022-07-22T16:14:13;30.80;49.60
39779;DHT22;25454;49.878;8.618;2022-07-22T16:19:14;30.90;48.90
39779;DHT22;25454;49.878;8.618;2022-07-22T16:24:15;31.00;48.70
39779;DHT22;25454;49.878;8.618;2022-07-22T16:29:15;31.00;48.70
39779;DHT22;25454;49.878;8.618;2022-07-22T16:34:16;30.90;48.90
39779;DHT22;25454;49.878;8.618;2022-07-22T16:39:17;30.80;49.50
39779;DHT22;25454;49.878;8.618;2022-07-22T16:44:17;30.60;49.60
39779;DHT22;25454;49.878;8.618;2022-07-22T16:49:18;30.30;50.30
39779;DHT22;25454;49.878;8.618;2022-07-22T16:54:19;30.00;51.00
39779;DHT22;25454;49.878;8.618;2022-07-22T16:59:19;29.80;50.80
39779;DHT22;25454;49.878;8.618;2022-07-22T17:04:20;29.70;50.90
39779;DHT22;25454;49.878;8.618;2022-07-22T17:09:21;29.60;51.50
39779;DHT22;25454;49.878;8.618;2022-07-22T17:14:21;29.60;51.70
39779;DHT22;25454;49.878;8.618;2022-07-22T17:19:22;29.60;51.20
39779;DHT22;25454;49.878;8.618;2022-07-22T17:24:23;29.70;50.60
39779;DHT22;25454;49.878;8.618;2022-07-22T17:29:23;29.80;50.10
39779;DHT22;25454;49.878;8.618;2022-07-22T17:34:24;29.90;49.00
39779;DHT22;25454;49.878;8.618;2022-07-22T17:39:31;29.90;49.20
39779;DHT22;25454;49.878;8.618;2022-07-22T17:44:33;29.80;48.50
39779;DHT22;25454;49.878;8.618;2022-07-22T17:49:34;29.60;48.10
39779;DHT22;25454;49.878;8.618;2022-07-22T17:54:34;29.40;49.00
39779;DHT22;25454;49.878;8.618;2022-07-22T17:59:35;29.30;48.70
39779;DHT22;25454;49.878;8.618;2022-07-22T18:04:36;29.30;49.20
39779;DHT22;25454;49.878;8.618;2022-07-22T18:09:36;29.30;49.70
39779;DHT22;25454;49.878;8.618;2022-07-22T18:14:37;29.30;49.40
39779;DHT22;25454;49.878;8.618;2022-07-22T18:19:38;29.30;49.50
39779;DHT22;25454;49.878;8.618;2022-07-22T18:24:38;29.20;48.70
39779;DHT22;25454;49.878;8.618;2022-07-22T18:29:39;28.80;48.60
39779;DHT22;25454;49.878;8.618;2022-07-22T18:34:39;28.70;49.00
39779;DHT22;25454;49.878;8.618;2022-07-22T18:39:43;28.50;50.00
39779;DHT22;25454;49.878;8.618;2022-07-22T18:44:44;28.20;51.20
39779;DHT22;25454;49.878;8.618;2022-07-22T18:49:45;28.00;52.30
39779;DHT22;25454;49.878;8.618;2022-07-22T18:54:45;27.80;52.10
39779;DHT22;25454;49.878;8.618;2022-07-22T18:59:49;27.60;53.30
39779;DHT22;25454;49.878;8.618;2022-07-22T19:04:49;27.40;56.80
39779;DHT22;25454;49.878;8.618;2022-07-22T19:09:50;27.40;57.00
39779;DHT22;25454;49.878;8.618;2022-07-22T19:14:52;27.40;55.20
39779;DHT22;25454;49.878;8.618;2022-07-22T19:19:52;27.40;55.00
39779;DHT22;25454;49.878;8.618;2022-07-22T19:24:54;27.30;59.10
39779;DHT22;25454;49.878;8.618;2022-07-22T19:29:55;27.20;58.20
39779;DHT22;25454;49.878;8.618;2022-07-22T19:34:55;27.00;59.80
39779;DHT22;25454;49.878;8.618;2022-07-22T19:39:56;27.00;61.20
39779;DHT22;25454;49.878;8.618;2022-07-22T19:44:56;27.00;61.30
39779;DHT22;25454;49.878;8.618;2022-07-22T19:49:57;26.80;61.80
39779;DHT22;25454;49.878;8.618;2022-07-22T19:54:58;26.70;61.20
39779;DHT22;25454;49.878;8.618;2022-07-22T19:59:58;26.50;62.60
39779;DHT22;25454;49.878;8.618;2022-07-22T20:04:59;26.50;63.00
39779;DHT22;25454;49.878;8.618;2022-07-22T20:09:59;26.30;64.90
39779;DHT22;25454;49.878;8.618;2022-07-22T20:15:00;26.30;64.60
39779;DHT22;25454;49.878;8.618;2022-07-22T20:20:01;26.40;62.50
39779;DHT22;25454;49.878;8.618;2022-07-22T20:25:02;26.40;63.00
39779;DHT22;25454;49.878;8.618;2022-07-22T20:30:03;26.40;63.60
39779;DHT22;25454;49.878;8.618;2022-07-22T20:35:04;26.40;64.10
39779;DHT22;25454;49.878;8.618;2022-07-22T20:40:05;26.30;63.10
39779;DHT22;25454;49.878;8.618;2022-07-22T20:45:07;26.30;64.40
39779;DHT22;25454;49.878;8.618;2022-07-22T20:50:08;26.20;65.30
39779;DHT22;25454;49.878;8.618;2022-07-22T20:55:08;26.10;65.80
39779;DHT22;25454;49.878;8.618;2022-07-22T21:00:09;26.00;66.20
39779;DHT22;25454;49.878;8.618;2022-07-22T21:05:10;25.80;67.00
39779;DHT22;25454;49.878;8.618;2022-07-22T21:10:11;25.80;65.50
39779;DHT22;25454;49.878;8.618;2022-07-22T21:15:12;25.80;65.40
39779;DHT22;25454;49.878;8.618;2022-07-22T21:20:12;25.80;65.20
39779;DHT22;25454;49.878;8.618;2022-07-22T21:25:13;25.80;65.40
39779;DHT22;25454;49.878;8.618;2022-07-22T21:30:14;25.70;68.00
39779;DHT22;25454;49.878;8.618;2022-07-22T21:35:15;25.60;68.60
39779;DHT22;25454;49.878;8.618;2022-07-22T21:40:15;25.40;69.00
39779;DHT22;25454;49.878;8.618;2022-07-22T21:45:16;25.30;68.90
39779;DHT22;25454;49.878;8.618;2022-07-22T21:50:16;25.20;69.10
39779;DHT22;25454;49.878;8.618;2022-07-22T21:55:17;25.10;70.40
39779;DHT22;25454;49.878;8.618;2022-07-22T22:00:18;25.00;70.20
39779;DHT22;25454;49.878;8.618;2022-07-22T22:05:18;24.90;70.80
39779;DHT22;25454;49.878;8.618;2022-07-22T22:10:19;24.80;71.50
39779;DHT22;25454;49.878;8.618;2022-07-22T22:15:20;24.70;72.30
39779;DHT22;25454;49.878;8.618;2022-07-22T22:20:21;24.60;73.30
39779;DHT22;25454;49.878;8.618;2022-07-22T22:25:21;24.40;74.10
39779;DHT22;25454;49.878;8.618;2022-07-22T22:30:22;24.30;74.60
39779;DHT22;25454;49.878;8.618;2022-07-22T22:35:23;24.30;75.20
39779;DHT22;25454;49.878;8.618;2022-07-22T22:40:26;24.20;76.00
39779;DHT22;25454;49.878;8.618;2022-07-22T22:45:27;24.20;76.40
39779;DHT22;25454;49.878;8.618;2022-07-22T22:50:30;24.10;77.00
39779;DHT22;25454;49.878;8.618;2022-07-22T22:55:31;24.00;77.60
39779;DHT22;25454;49.878;8.618;2022-07-22T23:00:32;23.90;78.50
39779;DHT22;25454;49.878;8.618;2022-07-22T23:05:32;23.90;78.90
39779;DHT22;25454;49.878;8.618;2022-07-22T23:10:36;23.80;79.60
39779;DHT22;25454;49.878;8.618;2022-07-22T23:15:37;23.60;80.30
39779;DHT22;25454;49.878;8.618;2022-07-22T23:20:37;23.60;81.20
39779;DHT22;25454;49.878;8.618;2022-07-22T23:25:52;23.60;81.70
39779;DHT22;25454;49.878;8.618;2022-07-22T23:30:53;23.60;82.00
39779;DHT22;25454;49.878;8.618;2022-07-22T23:35:53;23.60;82.70
39779;DHT22;25454;49.878;8.618;2022-07-22T23:40:54;23.60;83.50
39779;DHT22;25454;49.878;8.618;2022-07-22T23:46:02;23.60;84.00
39779;DHT22;25454;49.878;8.618;2022-07-22T23:51:05;23.50;84.90
39779;DHT22;25454;49.878;8.618;2022-07-22T23:56:06;23.50;85.70
